Time;durP1;ratioP1;P1;durP2;ratioP2;P2;SDS_P1;SDS_P2;PMS_P1;PMS_P2;Temp;Humidity;BMP_temperature;BMP_pressure;BME280_temperature;BME280_humidity;BME280_pressure;Samples;Min_cycle;Max_cycle;Signal;HPM_P1;HPM_P2
2021/05/22 00:01:38;;;;;;;9.33;4.70;;;;;;;6.80;85.53;100062.08;1698904;81;23477;-84
2021/05/22 00:04:06;;;;;;;10.35;4.97;;;;;;;6.76;84.96;100060.87;1714973;83;21152;-84
2021/05/22 00:06:33;;;;;;;12.95;5.45;;;;;;;6.69;84.99;100056.22;1714603;83;21195;-85
2021/05/22 00:09:00;;;;;;;9.20;5.20;;;;;;;6.65;84.92;100061.98;1714690;83;21657;-85
2021/05/22 00:14:12;;;;;;;9.48;5.65;;;;;;;6.65;85.99;100058.51;1816019;79;27977;-89
2021/05/22 00:16:40;;;;;;;12.85;5.80;;;;;;;6.58;85.77;100055.16;1769027;79;21283;-68
2021/05/22 00:19:09;;;;;;;8.43;5.50;;;;;;;6.55;85.45;100054.36;1660850;86;22223;-68
2021/05/22 00:21:36;;;;;;;9.03;4.97;;;;;;;6.50;85.44;100054.00;1660730;86;21124;-68
2021/05/22 00:24:05;;;;;;;14.85;5.87;;;;;;;6.47;85.35;100052.77;1685701;84;21037;-68
2021/05/22 00:26:31;;;;;;;6.67;3.60;;;;;;;6.44;85.53;100048.92;1656506;84;21639;-67
2021/05/22 00:28:59;;;;;;;11.03;4.97;;;;;;;6.42;85.99;100055.94;1661410;86;21101;-67
2021/05/22 00:31:27;;;;;;;8.48;5.50;;;;;;;6.44;86.42;100055.46;1661902;81;21077;-88
2021/05/22 00:33:54;;;;;;;9.33;4.75;;;;;;;6.46;87.38;100060.19;1605556;88;22344;-90
2021/05/22 00:36:22;;;;;;;13.83;5.83;;;;;;;6.46;86.86;100061.49;1583486;90;21075;-89
2021/05/22 00:38:50;;;;;;;10.28;5.42;;;;;;;6.48;87.58;100066.25;1615986;88;21145;-88
2021/05/22 00:41:19;;;;;;;9.73;4.33;;;;;;;6.47;87.06;100061.92;1614276;89;21125;-91
2021/05/22 00:43:46;;;;;;;10.88;5.22;;;;;;;6.45;86.59;100068.94;1613754;89;21180;-85
2021/05/22 00:46:13;;;;;;;10.10;5.00;;;;;;;6.46;87.46;100070.65;1614417;89;21133;-90
2021/05/22 00:48:43;;;;;;;11.90;5.40;;;;;;;6.46;87.14;100071.11;1674639;82;21702;-69
2021/05/22 00:51:10;;;;;;;15.28;5.80;;;;;;;6.45;87.24;100066.33;1691531;84;21135;-69
2021/05/22 00:53:37;;;;;;;12.25;5.15;;;;;;;6.44;87.04;100062.42;1691255;84;21079;-67
2021/05/22 00:56:05;;;;;;;11.83;5.58;;;;;;;6.42;86.66;100069.02;1691677;84;21083;-69
2021/05/22 00:58:34;;;;;;;11.48;4.78;;;;;;;6.40;86.49;100058.17;1691477;84;21154;-69
2021/05/22 01:01:04;;;;;;;11.40;5.33;;;;;;;6.36;86.58;100056.05;1691561;84;21095;-69
2021/05/22 01:03:39;;;;;;;13.38;5.67;;;;;;;6.36;86.49;100064.36;1707763;81;20944;-85
2021/05/22 01:06:30;;;;;;;9.80;5.08;;;;;;;6.34;87.54;100065.69;1722352;81;20981;-86
2021/05/22 01:09:06;;;;;;;13.68;5.97;;;;;;;6.33;87.41;100061.78;1720048;81;21064;-84
2021/05/22 01:11:38;;;;;;;9.43;5.20;;;;;;;6.34;87.97;100059.60;1694314;84;21119;-79
2021/05/22 01:14:39;;;;;;;8.05;5.70;;;;;;;6.32;88.51;100059.62;1754130;81;21074;-80
2021/05/22 01:17:07;;;;;;;11.65;5.70;;;;;;;6.29;88.11;100063.62;1738339;81;21472;-68
2021/05/22 01:20:04;;;;;;;20.95;6.08;;;;;;;6.22;87.72;100062.88;1686129;84;21087;-69
2021/05/22 01:22:45;;;;;;;7.05;4.17;;;;;;;6.20;88.10;100075.58;1662897;85;21114;-69
2021/05/22 01:25:29;;;;;;;16.00;6.67;;;;;;;6.17;88.48;100061.27;1637638;86;21160;-69
2021/05/22 01:27:57;;;;;;;13.20;6.95;;;;;;;6.19;89.09;100066.88;1621954;88;21107;-68
2021/05/22 01:30:25;;;;;;;9.05;4.28;;;;;;;6.17;88.86;100073.03;1651494;86;21153;-69
2021/05/22 01:32:52;;;;;;;13.55;6.60;;;;;;;6.16;88.91;100074.76;1662740;81;21092;-82
2021/05/22 01:35:20;;;;;;;16.02;6.95;;;;;;;6.19;89.34;100077.33;1666894;85;21070;-83
2021/05/22 01:37:47;;;;;;;9.98;5.92;;;;;;;6.20;89.81;100078.19;1668215;85;21663;-85
2021/05/22 01:40:17;;;;;;;14.68;7.00;;;;;;;6.19;89.32;100076.45;1649722;85;21001;-85
2021/05/22 01:42:45;;;;;;;10.38;6.17;;;;;;;6.19;89.46;100086.91;1636925;86;21128;-86
2021/05/22 01:45:31;;;;;;;9.10;6.12;;;;;;;6.18;89.22;100079.97;1636998;86;21113;-83
2021/05/22 01:48:02;;;;;;;15.98;7.20;;;;;;;6.16;88.93;100079.13;1651844;82;21672;-68
2021/05/22 01:50:32;;;;;;;9.00;5.87;;;;;;;6.16;89.64;100084.36;1695952;84;21112;-67
2021/05/22 01:52:59;;;;;;;13.18;7.05;;;;;;;6.13;89.33;100081.37;1700742;84;21083;-69
2021/05/22 01:55:25;;;;;;;16.87;7.67;;;;;;;6.13;89.44;100085.74;1688840;84;21135;-70
2021/05/22 01:57:52;;;;;;;10.48;5.35;;;;;;;6.13;89.77;100084.44;1671280;84;21100;-69
2021/05/22 02:00:20;;;;;;;14.73;7.50;;;;;;;6.12;89.47;100085.31;1673049;84;21095;-69
2021/05/22 02:02:53;;;;;;;9.57;5.93;;;;;;;6.13;89.65;100092.28;1692731;82;21214;-82
2021/05/22 02:05:20;;;;;;;10.53;5.40;;;;;;;6.12;89.48;100093.16;1694162;82;21132;-82
2021/05/22 02:07:47;;;;;;;13.00;7.05;;;;;;;6.12;89.40;100092.73;1674943;84;21183;-83
2021/05/22 02:10:15;;;;;;;17.30;7.42;;;;;;;6.14;89.30;100093.98;1674849;84;22164;-84
2021/05/22 02:12:44;;;;;;;15.45;7.65;;;;;;;6.11;89.00;100094.05;1684094;82;21174;-82
2021/05/22 02:15:14;;;;;;;12.88;6.80;;;;;;;6.11;88.79;100092.75;1669587;84;21171;-83
2021/05/22 02:17:41;;;;;;;14.30;7.80;;;;;;;6.14;89.77;100099.22;1692650;81;21682;-69
2021/05/22 02:20:10;;;;;;;15.13;7.42;;;;;;;6.14;89.52;100100.52;1724834;82;21104;-69
2021/05/22 02:22:39;;;;;;;13.68;6.28;;;;;;;6.12;89.31;100108.84;1699407;83;21092;-70
2021/05/22 02:25:07;;;;;;;13.78;6.28;;;;;;;6.08;88.87;100101.06;1696607;84;22408;-70
2021/05/22 02:27:35;;;;;;;18.15;7.30;;;;;;;6.05;88.86;100095.91;1719196;82;21127;-69
2021/05/22 02:30:08;;;;;;;11.25;7.12;;;;;;;6.05;88.87;100095.91;1742419;82;21067;-70
2021/05/22 02:32:43;;;;;;;15.40;7.03;;;;;;;6.01;88.56;100096.84;1718080;80;21052;-85
2021/05/22 02:35:10;;;;;;;13.70;7.55;;;;;;;6.03;88.98;100096.83;1763649;80;21040;-83
2021/05/22 02:37:37;;;;;;;10.53;6.90;;;;;;;6.01;89.08;100095.54;1751583;80;22152;-85
2021/05/22 02:40:14;;;;;;;13.03;7.42;;;;;;;6.02;89.09;100095.94;1742432;82;21111;-86
2021/05/22 02:42:46;;;;;;;12.47;6.72;;;;;;;6.08;89.75;100103.68;1739004;81;21048;-84
2021/05/22 02:45:15;;;;;;;9.55;6.75;;;;;;;6.11;89.57;100101.45;1740039;82;21101;-86
2021/05/22 02:47:43;;;;;;;15.48;7.58;;;;;;;6.17;89.64;100105.72;1737137;82;21604;-85
2021/05/22 02:50:10;;;;;;;13.00;5.83;;;;;;;6.24;89.69;100109.48;1730413;82;21123;-86
2021/05/22 02:52:38;;;;;;;14.68;8.05;;;;;;;6.32;89.63;100101.47;1738586;81;21128;-85
2021/05/22 02:55:06;;;;;;;14.35;7.33;;;;;;;6.43;90.22;100113.89;1740601;82;21105;-84
2021/05/22 02:57:34;;;;;;;12.23;7.42;;;;;;;6.56;90.47;100112.35;1741181;81;21564;-80
2021/05/22 03:00:01;;;;;;;14.30;8.03;;;;;;;6.67;90.03;100120.81;1738827;82;21093;-76
2021/05/22 03:02:30;;;;;;;13.13;6.12;;;;;;;6.79;89.75;100116.64;1733115;82;21140;-76
2021/05/22 03:04:56;;;;;;;13.43;7.67;;;;;;;6.91;89.42;100120.29;1738321;82;21104;-75
2021/05/22 03:07:24;;;;;;;13.62;8.48;;;;;;;7.07;89.37;100124.73;1744431;82;21080;-76
2021/05/22 03:09:52;;;;;;;13.78;6.80;;;;;;;7.21;89.51;100128.34;1737901;82;21643;-76
2021/05/22 03:12:22;;;;;;;12.95;7.33;;;;;;;7.39;89.01;100134.06;1746255;82;21059;-78
2021/05/22 03:14:49;;;;;;;17.93;8.03;;;;;;;7.57;89.85;100133.62;1721793;82;21064;-78
2021/05/22 03:17:16;;;;;;;13.10;7.33;;;;;;;7.74;90.35;100143.67;1746398;82;21666;-76
2021/05/22 03:19:44;;;;;;;15.70;7.80;;;;;;;7.92;89.73;100137.11;1746214;82;21095;-76
2021/05/22 03:22:11;;;;;;;17.82;7.95;;;;;;;8.09;90.36;100144.52;1746426;81;21024;-77
2021/05/22 03:24:39;;;;;;;18.98;7.87;;;;;;;8.26;90.02;100150.61;1746317;82;21036;-78
2021/05/22 03:27:07;;;;;;;11.78;7.97;;;;;;;8.45;89.64;100150.56;1746421;82;21075;-77
2021/05/22 03:29:34;;;;;;;18.12;8.20;;;;;;;8.68;90.20;100151.69;1745848;81;21138;-79
2021/05/22 03:32:01;;;;;;;12.65;7.85;;;;;;;8.92;89.03;100154.88;1746436;82;21087;-78
2021/05/22 03:34:29;;;;;;;17.05;9.30;;;;;;;9.24;88.79;100151.27;1743382;82;21621;-77
2021/05/22 03:36:57;;;;;;;24.65;10.80;;;;;;;9.57;88.66;100150.25;1743366;80;21088;-77
2021/05/22 03:39:24;;;;;;;23.75;10.43;;;;;;;9.91;86.22;100146.50;1743233;82;21133;-75
2021/05/22 03:41:52;;;;;;;19.87;8.70;;;;;;;10.34;85.04;100149.00;1705172;82;144547;-76
2021/05/22 03:44:19;;;;;;;22.35;9.85;;;;;;;10.90;83.27;100151.30;1689685;84;21124;-75
2021/05/22 03:46:47;;;;;;;18.90;9.53;;;;;;;11.40;80.49;100144.52;1646122;87;21151;-74
2021/05/22 03:49:14;;;;;;;15.65;8.45;;;;;;;11.94;79.17;100149.80;1687172;85;21152;-73
2021/05/22 03:51:40;;;;;;;12.68;7.25;;;;;;;12.37;73.41;100153.68;1645794;87;22373;-73
2021/05/22 03:54:08;;;;;;;15.08;6.80;;;;;;;12.79;69.15;100157.52;1674774;85;21151;-75
2021/05/22 03:56:35;;;;;;;15.95;6.62;;;;;;;12.99;69.21;100143.83;1674821;85;21127;-74
2021/05/22 03:59:02;;;;;;;11.38;6.60;;;;;;;13.02;64.53;100152.93;1674880;85;22029;-75
2021/05/22 04:01:29;;;;;;;12.18;7.20;;;;;;;13.07;65.67;100158.88;1674859;85;21126;-74
2021/05/22 04:03:57;;;;;;;15.28;7.40;;;;;;;13.27;65.34;100150.45;1674728;85;21517;-76
2021/05/22 04:06:24;;;;;;;16.73;7.03;;;;;;;13.61;64.47;100155.86;1674620;85;21105;-75
2021/05/22 04:08:51;;;;;;;14.78;6.95;;;;;;;14.08;65.66;100153.55;1674842;85;21117;-74
2021/05/22 04:11:18;;;;;;;11.95;6.65;;;;;;;14.51;60.94;100152.65;1681972;83;21152;-75
2021/05/22 04:13:45;;;;;;;11.93;6.35;;;;;;;14.81;59.21;100153.68;1687968;85;21112;-75
2021/05/22 04:16:13;;;;;;;14.83;6.60;;;;;;;15.04;60.32;100154.22;1688147;85;21121;-74
2021/05/22 04:18:41;;;;;;;13.08;6.35;;;;;;;15.24;56.85;100159.28;1690719;84;21885;-76
2021/05/22 04:21:08;;;;;;;10.43;6.20;;;;;;;15.49;59.35;100167.20;1681283;84;21135;-74
2021/05/22 04:23:35;;;;;;;13.30;6.75;;;;;;;15.82;56.80;100163.57;1694894;84;21118;-75
2021/05/22 04:26:02;;;;;;;10.05;5.60;;;;;;;16.07;56.36;100166.48;1687102;83;21150;-76
2021/05/22 04:28:28;;;;;;;11.65;5.50;;;;;;;16.35;56.07;100164.84;1683251;85;21122;-76
2021/05/22 04:30:56;;;;;;;9.58;5.37;;;;;;;16.49;52.64;100164.84;1684742;85;21091;-80
2021/05/22 04:33:23;;;;;;;9.13;5.53;;;;;;;16.52;53.71;100178.45;1684130;85;21099;-79
2021/05/22 04:35:50;;;;;;;16.05;5.92;;;;;;;16.47;53.89;100172.09;1698897;83;21064;-78
2021/05/22 04:38:19;;;;;;;12.15;6.58;;;;;;;16.46;52.57;100170.84;1689574;84;21103;-77
2021/05/22 04:40:46;;;;;;;16.93;8.15;;;;;;;16.62;52.29;100164.97;1692316;82;21153;-66
2021/05/22 04:43:13;;;;;;;16.82;7.15;;;;;;;16.81;50.49;100166.03;1697453;84;21591;-66
2021/05/22 04:45:41;;;;;;;10.75;6.10;;;;;;;16.97;51.16;100169.92;1697557;84;21047;-67
2021/05/22 04:48:11;;;;;;;12.47;5.28;;;;;;;17.18;51.71;100165.04;1697597;84;21115;-67
2021/05/22 04:50:38;;;;;;;8.95;4.10;;;;;;;17.35;49.42;100166.16;1697606;84;21628;-67
2021/05/22 04:53:05;;;;;;;5.83;4.08;;;;;;;17.48;50.99;100165.34;1697771;84;21122;-67
2021/05/22 04:55:35;;;;;;;11.65;4.78;;;;;;;17.62;50.20;100158.63;1697316;84;21569;31
2021/05/22 04:58:02;;;;;;;10.08;4.37;;;;;;;17.93;49.68;100161.98;1615246;88;21079;-78
2021/05/22 05:00:29;;;;;;;16.30;4.85;;;;;;;18.16;48.89;100151.94;1618141;88;21047;-73
2021/05/22 05:02:56;;;;;;;14.23;4.30;;;;;;;18.36;47.58;100157.25;1624170;88;21606;-70
2021/05/22 05:05:24;;;;;;;8.03;4.10;;;;;;;18.56;48.80;100157.17;1624011;88;21142;-73
2021/05/22 05:07:52;;;;;;;8.95;4.37;;;;;;;18.87;48.28;100157.73;1614958;88;21147;-73
2021/05/22 05:10:21;;;;;;;5.42;3.30;;;;;;;19.08;45.95;100149.51;1615048;88;21640;-71
2021/05/22 05:12:48;;;;;;;6.83;4.20;;;;;;;19.14;47.10;100149.56;1602470;88;21609;-65
2021/05/22 05:15:15;;;;;;;4.45;3.17;;;;;;;19.38;45.66;100159.41;1619894;88;21098;-65
2021/05/22 05:17:42;;;;;;;7.90;4.00;;;;;;;19.46;44.47;100160.56;1615634;88;21872;-66
2021/05/22 05:20:12;;;;;;;6.85;3.52;;;;;;;19.54;45.19;100171.16;1620302;88;21123;-65
2021/05/22 05:22:40;;;;;;;4.60;3.60;;;;;;;19.45;45.22;100169.52;1619363;88;22402;-63
2021/05/22 05:25:09;;;;;;;10.43;4.00;;;;;;;19.58;47.02;100166.81;1626749;87;21114;-67
2021/05/22 05:27:36;;;;;;;8.23;4.37;;;;;;;19.68;45.68;100166.97;1649709;85;21640;-73
2021/05/22 05:30:04;;;;;;;7.72;3.72;;;;;;;19.81;45.89;100169.63;1640986;86;21132;-73
2021/05/22 05:32:32;;;;;;;6.72;3.25;;;;;;;20.06;46.83;100163.25;1661485;85;21182;-72
2021/05/22 05:34:59;;;;;;;7.90;3.20;;;;;;;20.36;44.82;100171.23;1643568;85;21139;-72
2021/05/22 05:37:26;;;;;;;3.62;2.42;;;;;;;20.48;43.73;100166.29;1622216;86;21149;-73
2021/05/22 05:39:53;;;;;;;4.10;2.22;;;;;;;20.47;42.88;100165.41;1665028;84;21131;-74
2021/05/22 05:42:20;;;;;;;4.72;2.45;;;;;;;20.38;40.95;100165.28;1713228;81;21812;-69
2021/05/22 05:44:48;;;;;;;3.72;2.20;;;;;;;20.39;42.29;100172.36;1717096;81;21076;-68
2021/05/22 05:47:15;;;;;;;7.15;2.27;;;;;;;20.27;41.51;100166.98;1717103;83;21145;-68
2021/05/22 05:49:42;;;;;;;5.03;2.67;;;;;;;20.22;41.02;100171.84;1680877;83;21137;-68
2021/05/22 05:52:09;;;;;;;14.90;3.00;;;;;;;20.11;40.89;100171.80;1681670;84;21667;-67
2021/05/22 05:54:36;;;;;;;7.80;2.40;;;;;;;20.17;41.79;100175.32;1691501;84;21102;-67
2021/05/22 05:57:05;;;;;;;5.10;2.15;;;;;;;20.45;41.35;100179.88;1665798;82;21117;-73
2021/05/22 05:59:32;;;;;;;7.90;2.12;;;;;;;20.69;40.06;100182.52;1652035;85;21065;-73
2021/05/22 06:01:59;;;;;;;6.97;1.98;;;;;;;20.98;37.36;100186.91;1623849;87;21104;-73
2021/05/22 06:04:26;;;;;;;3.58;1.72;;;;;;;21.16;36.26;100190.80;1644338;87;21082;-72
2021/05/22 06:06:54;;;;;;;4.55;1.65;;;;;;;21.30;36.36;100195.50;1640997;87;21153;-73
2021/05/22 06:09:21;;;;;;;6.08;1.87;;;;;;;21.34;35.52;100188.93;1660384;86;21115;-74
2021/05/22 06:11:48;;;;;;;4.47;1.80;;;;;;;21.27;36.03;100193.93;1651615;84;21135;-67
2021/05/22 06:14:19;;;;;;;2.22;1.60;;;;;;;21.22;35.29;100195.29;1591346;89;21614;-67
2021/05/22 06:16:45;;;;;;;4.25;1.70;;;;;;;21.17;37.56;100198.34;1613238;87;21087;-68
2021/05/22 06:19:12;;;;;;;3.47;1.42;;;;;;;21.29;36.40;100197.83;1613518;87;21142;-68
2021/05/22 06:21:39;;;;;;;10.15;1.80;;;;;;;21.48;36.19;100198.06;1648990;85;21998;-67
2021/05/22 06:24:07;;;;;;;2.33;1.30;;;;;;;21.64;34.86;100200.83;1672969;84;21646;-67
2021/05/22 06:26:34;;;;;;;2.15;1.55;;;;;;;21.62;35.32;100202.78;1675091;81;21933;-72
2021/05/22 06:29:01;;;;;;;3.12;1.40;;;;;;;21.57;35.13;100204.00;1679646;84;21075;-71
2021/05/22 06:31:28;;;;;;;5.47;1.60;;;;;;;21.43;35.29;100215.00;1705514;82;21109;-79
2021/05/22 06:33:55;;;;;;;9.60;2.15;;;;;;;21.31;35.53;100210.62;1710519;83;21077;-75
2021/05/22 06:36:21;;;;;;;3.92;1.87;;;;;;;21.16;36.47;100216.23;1701023;82;21045;-77
2021/05/22 06:38:48;;;;;;;3.33;1.72;;;;;;;21.16;35.89;100212.22;1680550;84;21104;-74
2021/05/22 06:41:15;;;;;;;7.30;1.82;;;;;;;21.15;36.03;100215.86;1705685;82;21095;-70
2021/05/22 06:43:42;;;;;;;3.40;1.82;;;;;;;21.19;36.12;100215.59;1669996;84;21118;-71
2021/05/22 06:46:56;;;;;;;2.90;1.62;;;;;;;21.32;35.63;100217.66;1675214;84;21146;-70
2021/05/22 06:48:38;;;;;;;10.60;2.10;;;;;;;21.76;36.15;100223.93;1660382;84;21170;-71
2021/05/22 06:51:06;;;;;;;5.28;1.82;;;;;;;22.04;35.70;100214.94;1664617;83;21146;-72
2021/05/22 06:53:33;;;;;;;8.98;2.00;;;;;;;22.25;34.77;100215.86;1665699;85;21132;-70
2021/05/22 06:56:00;;;;;;;4.15;1.82;;;;;;;22.53;34.41;100208.98;1671488;82;21570;-73
2021/05/22 06:58:27;;;;;;;5.20;2.10;;;;;;;22.93;33.46;100210.05;1672632;84;21102;-73
2021/05/22 07:00:55;;;;;;;6.40;1.77;;;;;;;23.06;33.60;100205.83;1681578;84;21546;-72
2021/05/22 07:03:22;;;;;;;9.38;1.87;;;;;;;22.97;31.84;100215.51;1685432;83;21158;-72
2021/05/22 07:05:49;;;;;;;9.18;1.90;;;;;;;22.95;31.76;100214.80;1683426;84;21675;-73
2021/05/22 07:08:17;;;;;;;15.10;2.20;;;;;;;22.99;32.57;100217.61;1681376;84;21528;-72
2021/05/22 07:10:46;;;;;;;2.52;1.72;;;;;;;23.28;31.49;100206.11;1674298;84;21114;-74
2021/05/22 07:13:13;;;;;;;5.40;1.42;;;;;;;23.61;31.83;100207.11;1688463;83;21114;-72
2021/05/22 07:15:40;;;;;;;3.12;1.60;;;;;;;23.53;31.16;100198.88;1689924;83;21101;-71
2021/05/22 07:18:07;;;;;;;4.05;1.65;;;;;;;23.14;31.54;100198.77;1692935;83;21043;-70
2021/05/22 07:20:35;;;;;;;13.10;2.30;;;;;;;22.94;33.21;100199.68;1698297;83;21119;-72
2021/05/22 07:23:02;;;;;;;11.00;2.12;;;;;;;22.97;31.79;100194.03;1689422;83;21631;-70
2021/05/22 07:25:30;;;;;;;8.40;1.67;;;;;;;22.93;31.72;100200.64;1689200;83;21580;-71
2021/05/22 07:27:57;;;;;;;2.72;1.62;;;;;;;22.68;33.76;100198.75;1685911;80;21162;-73
2021/05/22 07:30:26;;;;;;;2.98;1.60;;;;;;;22.69;32.88;100197.78;1698890;83;21082;-73
2021/05/22 07:32:54;;;;;;;2.15;1.80;;;;;;;22.85;32.62;100190.59;1689538;84;21106;-73
2021/05/22 07:35:21;;;;;;;5.90;1.82;;;;;;;22.87;32.36;100189.09;1704483;83;21120;-73
2021/05/22 07:37:48;;;;;;;5.50;1.60;;;;;;;22.86;31.88;100183.37;1699538;83;21054;-72
2021/05/22 07:40:15;;;;;;;5.83;1.67;;;;;;;22.98;31.90;100194.37;1705131;83;21534;-73
2021/05/22 07:42:48;;;;;;;6.20;1.65;;;;;;;22.96;31.75;100178.88;1657786;83;21310;-71
2021/05/22 07:45:12;;;;;;;5.12;1.60;;;;;;;22.99;32.65;100181.35;1613905;88;21136;-72
2021/05/22 07:47:41;;;;;;;10.35;1.70;;;;;;;23.26;31.91;100183.42;1614815;88;21171;-72
2021/05/22 07:50:10;;;;;;;8.28;1.77;;;;;;;23.42;30.76;100180.18;1606826;88;21099;-72
2021/05/22 07:52:40;;;;;;;8.58;2.12;;;;;;;23.24;30.66;100190.27;1654767;85;23021;-73
2021/05/22 07:55:09;;;;;;;8.08;1.40;;;;;;;23.11;31.13;100176.22;1655745;86;21158;-72
2021/05/22 07:57:36;;;;;;;4.83;1.10;;;;;;;23.11;30.94;100177.56;1651192;83;21692;-72
2021/05/22 08:00:07;;;;;;;6.60;1.50;;;;;;;23.02;30.12;100181.06;1636006;87;21078;-73
2021/05/22 08:02:36;;;;;;;5.33;1.30;;;;;;;22.92;30.21;100183.69;1596720;87;21131;-72
2021/05/22 08:05:06;;;;;;;4.25;1.55;;;;;;;22.85;30.89;100172.30;1631563;87;21615;-73
2021/05/22 08:07:34;;;;;;;11.60;1.90;;;;;;;22.99;30.36;100166.08;1634199;86;21118;-74
2021/05/22 08:10:01;;;;;;;11.15;1.70;;;;;;;23.23;29.39;100173.77;1633609;87;23736;-75
2021/05/22 08:12:30;;;;;;;6.85;1.67;;;;;;;22.93;30.98;100161.20;1629740;84;21086;-73
2021/05/22 08:14:56;;;;;;;5.60;1.30;;;;;;;22.98;30.61;100167.52;1619618;88;21158;-73
2021/05/22 08:17:29;;;;;;;3.33;1.60;;;;;;;23.17;29.65;100161.41;1619574;87;21134;-71
2021/05/22 08:19:53;;;;;;;1.98;1.22;;;;;;;23.20;29.65;100160.62;1587948;90;21181;-71
2021/05/22 08:22:20;;;;;;;5.72;1.65;;;;;;;23.28;29.21;100156.40;1593121;88;22251;-73
2021/05/22 08:24:47;;;;;;;7.78;1.60;;;;;;;23.53;29.65;100153.19;1573554;90;21164;-73
2021/05/22 08:27:14;;;;;;;5.37;1.92;;;;;;;23.72;28.76;100151.03;1589391;86;21111;-75
2021/05/22 08:29:42;;;;;;;4.95;1.45;;;;;;;23.73;29.24;100158.59;1586184;90;21164;-77
2021/05/22 08:32:09;;;;;;;3.55;1.50;;;;;;;23.79;30.05;100156.73;1606127;89;21058;-76
2021/05/22 08:34:39;;;;;;;5.70;1.22;;;;;;;23.92;28.43;100155.92;1566129;90;21481;-77
2021/05/22 08:37:06;;;;;;;6.28;1.47;;;;;;;24.05;28.82;100157.84;1568866;90;21130;-75
2021/05/22 08:39:34;;;;;;;3.02;1.10;;;;;;;24.19;28.84;100143.59;1585522;90;21728;-75
2021/05/22 08:42:04;;;;;;;8.08;1.50;;;;;;;24.40;28.39;100138.86;1594503;85;21682;-73
2021/05/22 08:44:31;;;;;;;;;;;;;;;24.31;28.24;100143.77;1609142;88;21078;-73
2021/05/22 08:46:58;;;;;;;7.85;1.70;;;;;;;24.10;29.15;100145.80;1607287;89;21103;-73
2021/05/22 08:49:40;;;;;;;54.98;3.40;;;;;;;24.10;28.45;100141.77;1600272;89;21587;-73
2021/05/22 08:51:56;;;;;;;6.37;1.52;;;;;;;24.17;27.87;100142.89;1592542;89;21634;-71
2021/05/22 08:54:22;;;;;;;3.15;1.17;;;;;;;23.90;27.38;100134.20;1591530;89;21169;-72
2021/05/22 08:56:49;;;;;;;9.23;1.20;;;;;;;23.88;28.35;100131.67;1589830;85;22247;-74
2021/05/22 08:59:16;;;;;;;5.35;1.20;;;;;;;23.82;28.08;100129.05;1618842;87;21599;-72
2021/05/22 09:01:44;;;;;;;6.10;1.50;;;;;;;23.85;27.20;100121.19;1609626;88;21651;-73
2021/05/22 09:04:10;;;;;;;3.58;1.27;;;;;;;23.78;27.30;100130.81;1585124;88;21092;-71
2021/05/22 09:06:43;;;;;;;10.78;1.57;;;;;;;23.49;27.88;100122.23;1608381;89;21131;-72
2021/05/22 09:09:10;;;;;;;2.33;1.00;;;;;;;23.46;27.69;100122.48;1606631;87;21163;-72
2021/05/22 09:11:50;;;;;;;6.90;1.52;;;;;;;23.42;26.84;100117.03;1608695;88;21915;-72
2021/05/22 09:14:42;;;;;;;5.62;1.52;;;;;;;23.51;27.50;100117.53;1573587;90;21380;-70
2021/05/22 09:17:13;;;;;;;10.55;1.45;;;;;;;23.39;27.29;100117.32;1577893;90;21170;-70
2021/05/22 09:19:41;;;;;;;14.15;2.72;;;;;;;23.36;28.14;100120.30;1577803;89;21149;-71
2021/05/22 09:22:21;;;;;;;2.75;1.05;;;;;;;23.50;27.36;100115.84;1575389;90;21134;-70
2021/05/22 09:25:02;;;;;;;9.40;1.42;;;;;;;23.59;28.52;100115.00;1581609;89;21281;-72
2021/05/22 09:27:35;;;;;;;2.45;1.27;;;;;;;23.84;27.25;100123.53;1594417;84;21128;-73
2021/05/22 09:30:11;;;;;;;;;;;;;;;23.86;27.40;100122.90;1623151;86;21642;-72
2021/05/22 09:32:38;;;;;;;6.42;1.32;;;;;;;23.87;26.32;100112.48;1609977;88;20260;-72
2021/05/22 09:35:06;;;;;;;4.08;0.90;;;;;;;23.85;26.57;100106.39;1610186;87;21618;-73
2021/05/22 09:37:47;;;;;;;10.72;1.65;;;;;;;24.11;26.76;100107.13;1609899;88;21111;-72
2021/05/22 09:40:16;;;;;;;3.47;1.00;;;;;;;24.03;26.58;100115.43;1614422;88;21087;-73
2021/05/22 09:42:44;;;;;;;10.00;1.35;;;;;;;23.87;26.58;100104.41;1583523;86;21141;-70
2021/05/22 09:45:30;;;;;;;5.70;1.20;;;;;;;23.99;29.31;100103.25;1545759;91;21168;-71
2021/05/22 09:48:10;;;;;;;3.92;1.00;;;;;;;24.37;27.50;100097.45;1545292;91;21103;-71
2021/05/22 09:50:41;;;;;;;3.35;1.12;;;;;;;24.89;26.29;100101.00;1557626;90;21997;-72
2021/05/22 09:53:25;;;;;;;;;;;;;;;24.80;26.56;100096.04;1572102;87;21207;-72
2021/05/22 09:56:20;;;;;;;6.20;1.50;;;;;;;24.68;26.58;100098.55;1575573;89;20283;-73
2021/05/22 09:58:58;;;;;;;5.47;1.25;;;;;;;24.39;26.00;100095.97;1630899;84;21088;-71
2021/05/22 10:01:30;;;;;;;10.35;1.52;;;;;;;24.33;28.70;100089.31;1646678;86;21101;-72
2021/05/22 10:04:20;;;;;;;7.25;1.57;;;;;;;24.29;27.37;100097.31;1651065;85;21092;-72
2021/05/22 10:06:47;;;;;;;4.83;1.70;;;;;;;24.30;26.36;100088.27;1644615;85;21062;-71
2021/05/22 10:09:17;;;;;;;8.98;1.90;;;;;;;24.54;28.45;100080.20;1656662;85;21112;-73
2021/05/22 10:12:15;;;;;;;8.88;1.40;;;;;;;24.93;26.85;100070.59;1654557;85;21094;-72
2021/05/22 10:14:44;;;;;;;8.08;1.72;;;;;;;24.63;25.64;100079.31;1645419;87;21203;-70
2021/05/22 10:17:13;;;;;;;10.60;1.47;;;;;;;24.06;27.01;100093.64;1642953;87;21143;-69
2021/05/22 10:19:40;;;;;;;4.40;1.50;;;;;;;23.92;26.39;100081.13;1641113;87;21123;-68
2021/05/22 10:22:08;;;;;;;7.70;2.50;;;;;;;24.15;26.52;100074.92;1647507;87;21155;-70
2021/05/22 10:24:36;;;;;;;1.85;1.07;;;;;;;24.43;27.12;100065.92;1631568;87;21172;-70
2021/05/22 10:27:23;;;;;;;5.42;1.60;;;;;;;24.63;25.75;100052.39;1616861;83;21155;-69
2021/05/22 10:29:50;;;;;;;8.45;2.85;;;;;;;24.87;26.17;100052.69;1672956;85;21102;-71
2021/05/22 10:32:22;;;;;;;4.30;1.22;;;;;;;24.83;26.27;100048.59;1670839;85;21110;-72
2021/05/22 10:34:50;;;;;;;3.75;1.70;;;;;;;24.44;25.62;100058.69;1687104;84;21047;-72
2021/05/22 10:37:47;;;;;;;3.90;1.40;;;;;;;24.20;25.74;100055.14;1686021;84;21076;-72
2021/05/22 10:40:17;;;;;;;3.30;1.20;;;;;;;24.17;26.35;100043.34;1685632;84;22176;-72
2021/05/22 10:42:49;;;;;;;11.08;1.95;;;;;;;24.41;26.39;100036.08;1685000;82;21099;-72
2021/05/22 10:45:31;;;;;;;11.57;2.95;;;;;;;24.54;26.51;100047.90;1669610;84;21153;-72
2021/05/22 10:48:01;;;;;;;4.33;1.52;;;;;;;24.65;26.88;100027.52;1671765;84;21095;-71
2021/05/22 10:50:47;;;;;;;3.83;1.77;;;;;;;24.96;25.71;100028.52;1669479;84;21127;-72
2021/05/22 10:53:24;;;;;;;6.50;2.10;;;;;;;25.18;26.37;100025.42;1668682;84;30136;-73
2021/05/22 10:56:06;;;;;;;5.10;1.40;;;;;;;25.18;26.78;100028.11;1678530;84;21143;-71
2021/05/22 10:58:36;;;;;;;4.90;2.10;;;;;;;25.35;25.15;100008.05;1667024;83;21631;-74
2021/05/22 11:01:47;;;;;;;8.55;2.12;;;;;;;25.81;24.82;100022.23;1653809;85;21740;-73
2021/05/22 11:04:14;;;;;;;10.50;1.90;;;;;;;25.75;24.78;100008.88;1650961;86;21139;-74
2021/05/22 11:06:55;;;;;;;6.30;2.65;;;;;;;26.14;24.42;99990.95;1658285;85;21109;-74
2021/05/22 11:09:35;;;;;;;3.30;1.47;;;;;;;26.56;24.45;99993.67;1652306;85;21147;-73
2021/05/22 11:12:29;;;;;;;;;;;;;;;26.02;23.79;99993.08;1656029;85;21131;-76
2021/05/22 11:14:55;;;;;;;8.43;1.52;;;;;;;25.43;24.41;100002.74;1602628;88;20260;-70
2021/05/22 11:17:33;;;;;;;4.17;1.80;;;;;;;24.93;24.64;100005.94;1590676;89;21116;-70
2021/05/22 11:20:10;;;;;;;6.08;1.32;;;;;;;24.58;26.02;99992.77;1582456;89;21106;-71
2021/05/22 11:22:45;;;;;;;4.75;1.07;;;;;;;24.66;25.36;99986.11;1581983;89;21558;-70
2021/05/22 11:25:14;;;;;;;4.00;1.25;;;;;;;24.93;26.06;99991.13;1586325;89;21746;-72
2021/05/22 11:28:04;;;;;;;4.00;1.17;;;;;;;24.60;25.88;99992.13;1615242;85;21720;-72
2021/05/22 11:30:41;;;;;;;5.20;1.60;;;;;;;24.34;26.20;99994.14;1643908;85;21182;-74
2021/05/22 11:33:25;;;;;;;8.83;1.20;;;;;;;24.24;26.51;99983.40;1644215;86;21682;-74
2021/05/22 11:35:58;;;;;;;6.92;1.37;;;;;;;24.07;26.17;99976.96;1644965;85;21272;-73
2021/05/22 11:38:27;;;;;;;5.28;1.67;;;;;;;23.98;26.89;99982.39;1644081;86;21115;-72
2021/05/22 11:40:55;;;;;;;5.05;1.40;;;;;;;23.97;27.58;99986.05;1645569;86;21130;-73
2021/05/22 11:43:28;;;;;;;2.77;1.10;;;;;;;24.16;26.88;99980.62;1640473;86;21174;-73